createdAt,value
2022-12-15T00:05:17.417Z,99805.00
2022-12-15T00:11:38.435Z,99807.00
2022-12-15T00:17:59.316Z,99797.00
2022-12-15T00:24:20.658Z,99798.00
2022-12-15T00:30:41.769Z,99805.00
2022-12-15T00:37:02.590Z,99783.00
2022-12-15T00:43:04.842Z,99791.00
2022-12-15T00:49:26.917Z,99798.00
2022-12-15T00:55:47.875Z,99792.00
2022-12-15T01:02:08.809Z,99786.00
2022-12-15T01:08:30.069Z,99796.00
2022-12-15T01:14:51.404Z,99781.00
2022-12-15T01:21:02.461Z,99779.00
2022-12-15T01:27:04.700Z,99779.00
2022-12-15T01:33:06.926Z,99771.00
2022-12-15T01:39:09.410Z,99755.00
2022-12-15T01:45:30.026Z,99735.00
2022-12-15T01:51:35.715Z,99751.00
2022-12-15T01:57:38.486Z,99741.00
2022-12-15T02:03:43.002Z,99732.00
2022-12-15T02:09:47.767Z,99725.00
2022-12-15T02:15:59.140Z,99724.00
2022-12-15T02:22:19.859Z,99719.00
2022-12-15T02:28:59.672Z,99723.00
2022-12-15T02:35:17.322Z,99694.00
2022-12-15T02:41:39.027Z,99696.00
2022-12-15T02:47:41.248Z,99699.00
2022-12-15T02:54:11.541Z,99687.00
2022-12-15T03:00:16.031Z,99679.00
2022-12-15T03:06:19.402Z,99674.00
2022-12-15T03:12:21.778Z,99698.00
2022-12-15T03:18:23.860Z,99694.00
2022-12-15T03:24:26.399Z,99689.00
2022-12-15T03:30:28.797Z,99692.00
2022-12-15T03:36:31.265Z,99684.00
2022-12-15T03:42:51.680Z,99682.00
2022-12-15T03:48:54.552Z,99675.00
2022-12-15T03:54:56.641Z,99673.00
2022-12-15T04:00:59.084Z,99660.00
2022-12-15T04:07:01.435Z,99665.00
2022-12-15T04:13:10.296Z,99666.00
2022-12-15T04:19:31.125Z,99661.00
2022-12-15T04:25:52.064Z,99668.00
2022-12-15T04:32:13.043Z,99673.00
2022-12-15T04:38:34.029Z,99671.00
2022-12-15T04:44:55.229Z,99682.00
2022-12-15T04:51:15.962Z,99677.00
2022-12-15T04:57:37.170Z,99694.00
2022-12-15T05:03:57.922Z,99696.00
2022-12-15T05:10:18.752Z,99706.00
2022-12-15T05:16:39.668Z,99708.00
2022-12-15T05:23:00.637Z,99709.00
2022-12-15T05:29:21.801Z,99714.00
2022-12-15T05:35:23.798Z,99719.00
2022-12-15T05:41:25.975Z,99717.00
2022-12-15T05:47:28.529Z,99722.00
2022-12-15T05:53:31.173Z,99740.00
2022-12-15T05:59:33.869Z,99741.00
2022-12-15T06:05:36.074Z,99747.00
2022-12-15T06:11:38.585Z,99748.00
2022-12-15T06:17:40.733Z,99757.00
2022-12-15T06:23:43.339Z,99764.00
2022-12-15T06:29:45.893Z,99767.00
2022-12-15T06:35:49.233Z,99784.00
2022-12-15T06:41:51.531Z,99793.00
2022-12-15T06:47:57.953Z,99829.00
2022-12-15T06:54:03.815Z,99834.00
2022-12-15T07:00:07.839Z,99852.00
2022-12-15T07:06:12.274Z,99859.00
2022-12-15T07:12:14.880Z,99877.00
2022-12-15T07:18:17.792Z,99902.00
2022-12-15T07:24:20.268Z,99898.00
2022-12-15T07:30:22.493Z,99890.00
2022-12-15T07:36:25.389Z,99893.00
2022-12-15T07:42:31.162Z,99886.00
2022-12-15T07:48:34.178Z,99882.00
2022-12-15T07:54:36.872Z,99886.00
2022-12-15T08:00:42.665Z,99918.00
2022-12-15T08:06:47.579Z,99932.00
2022-12-15T08:12:50.003Z,99933.00
2022-12-15T08:18:52.334Z,99950.00
2022-12-15T08:24:55.183Z,99971.00
2022-12-15T08:31:02.035Z,99961.00
2022-12-15T08:37:04.298Z,99971.00
2022-12-15T08:43:06.399Z,99964.00
2022-12-15T08:49:09.171Z,99962.00
2022-12-15T08:55:16.785Z,99972.00
2022-12-15T09:01:24.376Z,99969.00
2022-12-15T09:07:26.837Z,99965.00
2022-12-15T09:13:29.719Z,99974.00
2022-12-15T09:19:32.277Z,99964.00
2022-12-15T09:25:34.767Z,99965.00
2022-12-15T09:31:38.290Z,99966.00
2022-12-15T09:37:40.543Z,99970.00
2022-12-15T09:43:52.658Z,99966.00
2022-12-15T09:49:57.894Z,99968.00
2022-12-15T09:56:06.767Z,99963.00
2022-12-15T10:02:18.054Z,99957.00
2022-12-15T10:08:22.773Z,99963.00
2022-12-15T10:14:31.149Z,99979.00
2022-12-15T10:20:33.741Z,99958.00
2022-12-15T10:26:36.276Z,99955.00
2022-12-15T10:32:52.599Z,99976.00
2022-12-15T10:38:55.264Z,99980.00
2022-12-15T10:44:59.009Z,100004.00
2022-12-15T10:51:16.917Z,99990.00
2022-12-15T10:57:31.971Z,99992.00
2022-12-15T11:03:38.569Z,99982.00
2022-12-15T11:09:41.989Z,99991.00
2022-12-15T11:15:54.899Z,99992.00
2022-12-15T11:22:03.402Z,99994.00
2022-12-15T11:28:15.043Z,100001.00
2022-12-15T11:34:20.986Z,100010.00
2022-12-15T11:40:39.032Z,100010.00
2022-12-15T11:47:10.574Z,100011.00
2022-12-15T11:53:31.413Z,100013.00
2022-12-15T12:00:13.591Z,100023.00
2022-12-15T12:06:43.432Z,100016.00
2022-12-15T12:13:12.397Z,100037.00
2022-12-15T12:19:43.877Z,100042.00
2022-12-15T12:25:59.540Z,100044.00
2022-12-15T12:32:23.221Z,100057.00
2022-12-15T12:38:30.051Z,100068.00
2022-12-15T12:44:35.786Z,100060.00
2022-12-15T12:50:38.197Z,100093.00
2022-12-15T12:56:45.571Z,100105.00
2022-12-15T13:02:52.792Z,100108.00
2022-12-15T13:08:56.339Z,100118.00
2022-12-15T13:14:59.378Z,100122.00
2022-12-15T13:21:15.852Z,100124.00
2022-12-15T13:27:20.171Z,100124.00
2022-12-15T13:33:22.956Z,100143.00
2022-12-15T13:39:27.979Z,100138.00
2022-12-15T13:45:52.708Z,100174.00
2022-12-15T13:52:03.055Z,100178.00
2022-12-15T13:58:18.850Z,100183.00
2022-12-15T14:04:22.621Z,100179.00
2022-12-15T14:10:24.991Z,100211.00
2022-12-15T14:16:29.686Z,100188.00
2022-12-15T14:22:31.952Z,100215.00
2022-12-15T14:28:36.801Z,100205.00
2022-12-15T14:34:42.140Z,100222.00
2022-12-15T14:40:46.127Z,100243.00
2022-12-15T14:46:52.113Z,100254.00
2022-12-15T14:53:02.226Z,100260.00
2022-12-15T14:59:19.203Z,100289.00
2022-12-15T15:05:33.424Z,100296.00
2022-12-15T15:11:41.288Z,100261.00
2022-12-15T15:17:50.170Z,100256.00
2022-12-15T15:24:03.733Z,100234.00
2022-12-15T15:30:17.191Z,100266.00
2022-12-15T15:36:19.345Z,100267.00
2022-12-15T15:42:22.047Z,100290.00
2022-12-15T15:48:45.107Z,100291.00
2022-12-15T15:54:47.867Z,100282.00
2022-12-15T16:00:50.272Z,100300.00
2022-12-15T16:06:53.542Z,100336.00
2022-12-15T16:13:01.302Z,100334.00
2022-12-15T16:19:03.669Z,100347.00
2022-12-15T16:25:06.715Z,100352.00
2022-12-15T16:31:16.075Z,100374.00
2022-12-15T16:37:26.376Z,100372.00
2022-12-15T16:43:36.203Z,100368.00
2022-12-15T16:49:40.521Z,100364.00
2022-12-15T16:55:43.230Z,100381.00
2022-12-15T17:01:46.470Z,100384.00
2022-12-15T17:07:55.190Z,100393.00
2022-12-15T17:14:01.222Z,100409.00
2022-12-15T17:26:30.067Z,100408.00
2022-12-15T17:32:32.755Z,100418.00
2022-12-15T17:38:35.112Z,100409.00
2022-12-15T17:44:38.590Z,100398.00
2022-12-15T17:50:41.239Z,100421.00
2022-12-15T17:56:46.222Z,100420.00
2022-12-15T18:02:49.403Z,100437.00
2022-12-15T18:08:51.913Z,100430.00
2022-12-15T18:14:55.365Z,100421.00
2022-12-15T18:21:00.916Z,100449.00
2022-12-15T18:27:09.798Z,100435.00
2022-12-15T18:33:12.130Z,100440.00
2022-12-15T18:39:24.340Z,100439.00
2022-12-15T18:45:28.386Z,100441.00
2022-12-15T18:51:31.312Z,100441.00
2022-12-15T18:57:38.244Z,100448.00
2022-12-15T19:03:41.392Z,100452.00
2022-12-15T19:09:43.709Z,100444.00
2022-12-15T19:15:46.292Z,100453.00
2022-12-15T19:22:07.274Z,100464.00
2022-12-15T19:28:21.209Z,100474.00
2022-12-15T19:34:23.489Z,100451.00
2022-12-15T19:40:30.581Z,100459.00
2022-12-15T19:46:33.245Z,100463.00
2022-12-15T19:52:35.674Z,100449.00
2022-12-15T19:58:39.065Z,100463.00
2022-12-15T20:04:41.222Z,100474.00
2022-12-15T20:10:43.327Z,100494.00
2022-12-15T20:16:45.841Z,100498.00
2022-12-15T20:22:54.490Z,100505.00
2022-12-15T20:28:57.259Z,100512.00
2022-12-15T20:34:59.257Z,100531.00
2022-12-15T20:41:03.041Z,100522.00
2022-12-15T20:47:05.347Z,100522.00
2022-12-15T20:53:20.524Z,100505.00
2022-12-15T20:59:22.832Z,100507.00
2022-12-15T21:05:25.965Z,100529.00
2022-12-15T21:11:31.544Z,100520.00
2022-12-15T21:17:38.703Z,100527.00
2022-12-15T21:23:43.957Z,100510.00
2022-12-15T21:29:52.234Z,100516.00
2022-12-15T21:35:54.587Z,100506.00
2022-12-15T21:42:00.202Z,100514.00
2022-12-15T21:48:21.160Z,100511.00
2022-12-15T21:54:35.284Z,100510.00
2022-12-15T22:00:40.941Z,100508.00
2022-12-15T22:06:50.691Z,100512.00
2022-12-15T22:12:59.350Z,100498.00
2022-12-15T22:19:02.330Z,100497.00
2022-12-15T22:25:04.602Z,100488.00
2022-12-15T22:31:07.122Z,100485.00
2022-12-15T22:37:12.652Z,100477.00
2022-12-15T22:43:23.161Z,100480.00
2022-12-15T22:49:37.834Z,100470.00
2022-12-15T22:55:40.307Z,100466.00
2022-12-15T23:01:42.457Z,100450.00
2022-12-15T23:07:45.772Z,100463.00
2022-12-15T23:13:48.016Z,100466.00
2022-12-15T23:19:50.449Z,100466.00
2022-12-15T23:25:52.693Z,100476.00
2022-12-15T23:31:56.192Z,100476.00
2022-12-15T23:37:58.875Z,100474.00
2022-12-15T23:44:01.243Z,100478.00
2022-12-15T23:50:04.261Z,100472.00
2022-12-15T23:56:11.386Z,100458.00
